createdAt,value
2019-01-08T00:00:50.556Z,13.60
2019-01-08T00:30:52.849Z,13.35
2019-01-08T00:45:51.762Z,12.00
2019-01-08T01:00:51.678Z,14.60
2019-01-08T01:15:51.547Z,14.80
2019-01-08T01:30:53.438Z,13.18
2019-01-08T01:45:50.837Z,12.07
2019-01-08T02:00:51.659Z,12.95
2019-01-08T02:15:53.599Z,13.43
2019-01-08T02:30:51.034Z,12.80
2019-01-08T02:45:51.976Z,13.15
2019-01-08T03:00:51.320Z,13.85
2019-01-08T03:15:51.289Z,13.15
2019-01-08T03:30:54.709Z,12.80
2019-01-08T03:45:58.036Z,12.00
2019-01-08T04:00:53.470Z,11.70
2019-01-08T04:15:52.807Z,12.98
2019-01-08T04:30:51.827Z,12.95
2019-01-08T04:45:51.748Z,12.88
2019-01-08T05:00:51.604Z,13.60
2019-01-08T05:15:51.559Z,13.95
2019-01-08T05:30:53.858Z,14.70
2019-01-08T05:45:50.800Z,12.93
2019-01-08T06:00:53.697Z,14.60
2019-01-08T06:15:51.716Z,12.75
2019-01-08T06:30:51.558Z,13.78
2019-01-08T06:45:51.431Z,13.40
2019-01-08T07:00:50.847Z,14.18
2019-01-08T07:15:49.916Z,13.28
2019-01-08T07:30:51.100Z,12.43
2019-01-08T07:45:52.495Z,12.45
2019-01-08T08:00:50.932Z,12.98
2019-01-08T08:15:50.872Z,12.98
2019-01-08T08:30:58.673Z,14.55
2019-01-08T08:45:50.580Z,12.53
2019-01-08T09:00:52.500Z,14.00
2019-01-08T09:15:51.947Z,13.98
2019-01-08T09:45:51.284Z,14.40
2019-01-08T10:00:50.125Z,12.43
2019-01-08T17:45:53.771Z,32.15
2019-01-08T18:00:52.413Z,36.75
2019-01-08T18:15:53.454Z,29.87
2019-01-08T18:30:53.406Z,26.42
2019-01-08T18:45:51.308Z,26.62
2019-01-08T19:00:50.719Z,38.90
2019-01-08T19:15:51.161Z,33.65
2019-01-08T19:30:52.754Z,32.50
2019-01-08T19:45:51.499Z,34.83
2019-01-08T20:00:51.489Z,33.02
2019-01-08T20:15:51.443Z,37.15
2019-01-08T20:30:51.379Z,30.35
2019-01-08T20:45:53.144Z,27.37
2019-01-08T21:00:51.544Z,23.55
2019-01-08T21:15:51.912Z,22.75
2019-01-08T21:30:53.428Z,26.57
2019-01-08T21:45:51.594Z,28.10
2019-01-08T22:00:51.058Z,32.10
2019-01-08T22:15:52.926Z,33.98
2019-01-08T22:30:51.948Z,38.08
2019-01-08T22:45:50.816Z,38.55
2019-01-08T23:15:51.645Z,32.35
2019-01-08T23:30:51.490Z,33.90
2019-01-08T23:45:52.408Z,32.55
